Time;durP1;ratioP1;P1;durP2;ratioP2;P2;SDS_P1;SDS_P2;PMS_P1;PMS_P2;Temp;Humidity;BMP_temperature;BMP_pressure;BME280_temperature;BME280_humidity;BME280_pressure;Samples;Min_cycle;Max_cycle;Signal;HPM_P1;HPM_P2
2023/12/19 00:02:57;;;;;;;60.90;28.77;;;;;;;;;;10286326;28;20030;-79
2023/12/19 00:07:58;;;;;;;57.97;30.10;;;;;;;;;;10286881;28;20037;-79
2023/12/19 00:12:59;;;;;;;62.77;29.70;;;;;;;;;;10285895;28;20458;-79
2023/12/19 00:18:00;;;;;;;54.53;26.93;;;;;;;;;;10295011;28;20041;-79
2023/12/19 00:23:01;;;;;;;54.03;27.50;;;;;;;;;;10281117;28;20027;-79
2023/12/19 00:28:02;;;;;;;49.47;22.70;;;;;;;;;;10291638;28;20030;-79
2023/12/19 00:33:03;;;;;;;42.90;24.17;;;;;;;;;;10277181;28;20043;-78
2023/12/19 00:38:05;;;;;;;51.83;25.53;;;;;;;;;;10282188;28;20785;-81
2023/12/19 00:43:06;;;;;;;57.03;28.73;;;;;;;;;;10285300;28;20054;-78
2023/12/19 00:48:07;;;;;;;52.23;26.83;;;;;;;;;;10286120;28;20121;-79
2023/12/19 00:53:08;;;;;;;47.33;24.83;;;;;;;;;;10294784;28;20030;-78
2023/12/19 00:58:09;;;;;;;50.40;25.53;;;;;;;;;;10284819;28;20039;-80
2023/12/19 01:03:10;;;;;;;40.93;21.43;;;;;;;;;;10283821;28;20037;-79
2023/12/19 01:08:11;;;;;;;46.53;23.10;;;;;;;;;;10279258;28;20034;-80
2023/12/19 01:13:12;;;;;;;36.33;20.60;;;;;;;;;;10285390;28;20031;-79
2023/12/19 01:18:13;;;;;;;37.07;18.57;;;;;;;;;;10283523;28;20047;-81
2023/12/19 01:23:15;;;;;;;30.23;15.43;;;;;;;;;;10284534;28;20026;-81
2023/12/19 01:28:16;;;;;;;29.50;15.63;;;;;;;;;;10284253;28;20478;-78
2023/12/19 01:33:18;;;;;;;26.67;14.80;;;;;;;;;;10284797;28;20038;-78
2023/12/19 01:38:19;;;;;;;30.50;15.60;;;;;;;;;;10295088;28;20045;-79
2023/12/19 01:43:20;;;;;;;29.60;15.87;;;;;;;;;;10300724;28;20437;-79
2023/12/19 01:48:23;;;;;;;19.80;11.30;;;;;;;;;;10291818;28;20513;-79
2023/12/19 01:53:25;;;;;;;26.57;12.93;;;;;;;;;;10299690;28;20085;-79
2023/12/19 01:58:28;;;;;;;24.97;12.23;;;;;;;;;;10286712;28;20059;-79
2023/12/19 02:03:29;;;;;;;28.57;14.87;;;;;;;;;;10285192;28;20035;-79
2023/12/19 02:08:31;;;;;;;28.83;14.40;;;;;;;;;;10299876;28;20031;-78
2023/12/19 02:13:32;;;;;;;25.67;13.70;;;;;;;;;;10291467;28;20041;-80
2023/12/19 02:18:33;;;;;;;20.83;11.90;;;;;;;;;;10291009;28;20054;-80
2023/12/19 02:23:34;;;;;;;18.97;9.70;;;;;;;;;;10294306;28;20045;-79
2023/12/19 02:28:35;;;;;;;17.63;10.27;;;;;;;;;;10290449;28;20050;-79
2023/12/19 02:33:36;;;;;;;18.20;9.93;;;;;;;;;;10291145;28;20042;-79
2023/12/19 02:38:37;;;;;;;17.97;9.37;;;;;;;;;;10301485;28;20164;-78
2023/12/19 02:43:38;;;;;;;18.63;9.17;;;;;;;;;;10290241;28;20086;-78
2023/12/19 02:48:39;;;;;;;19.53;10.57;;;;;;;;;;10289376;28;20030;-81
2023/12/19 02:53:40;;;;;;;21.07;10.47;;;;;;;;;;10289673;28;20035;-78
2023/12/19 02:58:42;;;;;;;25.13;12.33;;;;;;;;;;10289318;28;20047;-79
2023/12/19 03:03:43;;;;;;;26.73;13.63;;;;;;;;;;10289166;28;20031;-79
2023/12/19 03:08:45;;;;;;;23.20;11.40;;;;;;;;;;10289263;28;20038;-78
2023/12/19 03:13:46;;;;;;;15.90;8.87;;;;;;;;;;10289001;28;20047;-80
2023/12/19 03:18:47;;;;;;;15.93;8.63;;;;;;;;;;10288694;28;20094;-79
2023/12/19 03:23:55;;;;;;;16.73;8.70;;;;;;;;;;10301663;28;20042;-79
2023/12/19 03:28:56;;;;;;;15.10;8.80;;;;;;;;;;10288640;28;20038;-78
2023/12/19 03:33:57;;;;;;;17.27;7.60;;;;;;;;;;10287738;28;20043;-80
2023/12/19 03:38:58;;;;;;;49.83;16.87;;;;;;;;;;10287932;28;20027;-79
2023/12/19 03:43:59;;;;;;;22.67;11.10;;;;;;;;;;10288192;28;20487;-79
2023/12/19 03:49:00;;;;;;;24.53;9.43;;;;;;;;;;10298769;28;20022;-79
2023/12/19 03:54:01;;;;;;;23.37;10.10;;;;;;;;;;10270381;28;20039;-80
2023/12/19 03:59:02;;;;;;;28.57;13.53;;;;;;;;;;10287692;28;20035;-79
2023/12/19 04:04:10;;;;;;;21.80;11.07;;;;;;;;;;10273325;28;20034;-79
2023/12/19 04:09:11;;;;;;;20.10;10.40;;;;;;;;;;10298365;28;20031;-80
2023/12/19 04:14:12;;;;;;;21.77;11.33;;;;;;;;;;10287803;28;20039;-79
2023/12/19 04:19:13;;;;;;;17.20;8.90;;;;;;;;;;10292875;28;20027;-80
2023/12/19 04:24:14;;;;;;;22.77;11.93;;;;;;;;;;10286750;28;20134;-81
2023/12/19 04:29:22;;;;;;;21.73;11.10;;;;;;;;;;10266710;28;20035;-79
2023/12/19 04:34:23;;;;;;;22.07;10.90;;;;;;;;;;10285733;28;20042;-80
2023/12/19 04:39:24;;;;;;;28.17;13.67;;;;;;;;;;10292366;28;20550;-80
2023/12/19 04:44:26;;;;;;;25.13;12.20;;;;;;;;;;10291009;28;20058;-81
2023/12/19 04:49:27;;;;;;;26.67;13.40;;;;;;;;;;10289425;28;20085;-79
2023/12/19 04:54:28;;;;;;;26.03;12.73;;;;;;;;;;10298616;28;20077;-80
2023/12/19 04:59:30;;;;;;;21.30;10.90;;;;;;;;;;10292040;28;20398;-81
2023/12/19 05:04:31;;;;;;;17.50;9.23;;;;;;;;;;10278410;28;20039;-80
2023/12/19 05:09:32;;;;;;;18.53;9.53;;;;;;;;;;10286550;28;20038;-79
2023/12/19 05:14:33;;;;;;;20.03;10.43;;;;;;;;;;10295955;28;20043;-80
2023/12/19 05:19:34;;;;;;;20.53;10.13;;;;;;;;;;10292357;28;20049;-80
2023/12/19 05:24:37;;;;;;;26.17;10.83;;;;;;;;;;10292461;28;20034;-81
2023/12/19 05:29:38;;;;;;;32.17;14.37;;;;;;;;;;10292832;28;20072;-80
2023/12/19 05:34:39;;;;;;;32.50;16.20;;;;;;;;;;10280021;28;20038;-79
2023/12/19 05:39:42;;;;;;;24.50;13.10;;;;;;;;;;10292695;28;20045;-81
2023/12/19 05:44:43;;;;;;;30.00;13.03;;;;;;;;;;10291499;28;20055;-81
2023/12/19 05:49:44;;;;;;;26.97;12.37;;;;;;;;;;10291879;28;20035;-81
2023/12/19 05:54:52;;;;;;;24.43;11.20;;;;;;;;;;10279202;28;20134;-79
2023/12/19 05:59:53;;;;;;;22.87;10.27;;;;;;;;;;10291424;28;20041;-80
2023/12/19 06:04:54;;;;;;;29.60;12.47;;;;;;;;;;10288766;28;20042;-79
2023/12/19 06:09:55;;;;;;;27.60;12.30;;;;;;;;;;10283279;28;20553;-80
2023/12/19 06:14:56;;;;;;;21.00;9.93;;;;;;;;;;10303433;28;20034;-79
2023/12/19 06:19:57;;;;;;;20.73;10.17;;;;;;;;;;10286166;28;20039;-80
2023/12/19 06:24:58;;;;;;;21.00;10.87;;;;;;;;;;10279085;28;20045;-79
2023/12/19 06:29:59;;;;;;;24.37;12.60;;;;;;;;;;10289694;28;20042;-79
2023/12/19 06:35:02;;;;;;;20.20;9.63;;;;;;;;;;10279068;28;20029;-79
2023/12/19 06:40:07;;;;;;;19.43;9.90;;;;;;;;;;10290110;28;20034;-81
2023/12/19 06:45:08;;;;;;;26.30;14.00;;;;;;;;;;10289434;28;20065;-80
2023/12/19 06:50:09;;;;;;;29.07;13.50;;;;;;;;;;10283520;28;20062;-79
2023/12/19 06:55:13;;;;;;;31.70;16.23;;;;;;;;;;10276364;28;20045;-80
2023/12/19 07:00:16;;;;;;;41.70;19.67;;;;;;;;;;10289120;28;20137;-82
2023/12/19 07:05:17;;;;;;;90.43;31.63;;;;;;;;;;10281767;28;20074;-80
2023/12/19 07:10:19;;;;;;;42.33;19.63;;;;;;;;;;10284970;28;20047;-79
2023/12/19 07:15:23;;;;;;;39.73;16.77;;;;;;;;;;10272000;28;20165;-79
2023/12/19 07:20:24;;;;;;;37.27;17.90;;;;;;;;;;10279714;28;20039;-78
2023/12/19 07:25:26;;;;;;;30.17;15.53;;;;;;;;;;10288358;28;20106;-80
2023/12/19 07:30:27;;;;;;;35.23;17.13;;;;;;;;;;10288514;28;20039;-82
2023/12/19 07:35:28;;;;;;;35.63;17.03;;;;;;;;;;10282293;28;20618;-80
2023/12/19 07:40:29;;;;;;;43.07;19.80;;;;;;;;;;10265614;28;20030;-79
2023/12/19 07:45:32;;;;;;;38.57;18.30;;;;;;;;;;10267589;28;20745;-80
2023/12/19 07:50:33;;;;;;;44.90;20.10;;;;;;;;;;10282521;28;20538;-83
2023/12/19 07:55:34;;;;;;;36.90;17.33;;;;;;;;;;10288259;28;20042;-80
2023/12/19 08:00:35;;;;;;;27.67;11.63;;;;;;;;;;10286839;28;20093;-80
2023/12/19 08:05:36;;;;;;;22.07;11.40;;;;;;;;;;10286422;28;20121;-81
2023/12/19 08:10:37;;;;;;;25.63;11.07;;;;;;;;;;10286926;28;20038;-81
2023/12/19 08:15:40;;;;;;;21.37;10.17;;;;;;;;;;10287102;28;20077;-82
2023/12/19 08:20:42;;;;;;;21.00;10.63;;;;;;;;;;10285876;28;20043;-79
2023/12/19 08:25:43;;;;;;;25.77;11.90;;;;;;;;;;10286263;28;20031;-82
2023/12/19 08:30:44;;;;;;;21.03;11.07;;;;;;;;;;10286428;28;20027;-81
2023/12/19 08:35:45;;;;;;;28.83;13.73;;;;;;;;;;10285209;28;20533;-79
2023/12/19 08:40:46;;;;;;;29.27;16.30;;;;;;;;;;10285680;28;20117;-79
2023/12/19 08:45:48;;;;;;;27.10;16.73;;;;;;;;;;10285110;28;20103;-79
2023/12/19 08:50:49;;;;;;;26.87;14.33;;;;;;;;;;10284887;28;20034;-79
2023/12/19 08:55:50;;;;;;;28.40;15.07;;;;;;;;;;10285413;28;20146;-79
2023/12/19 09:00:51;;;;;;;24.93;12.87;;;;;;;;;;10285307;28;20037;-80
2023/12/19 09:05:52;;;;;;;23.23;10.07;;;;;;;;;;10285415;28;20412;-79
2023/12/19 09:10:53;;;;;;;15.67;7.97;;;;;;;;;;10285240;28;20034;-78
2023/12/19 09:15:54;;;;;;;19.63;10.77;;;;;;;;;;10266554;28;20085;-79
2023/12/19 09:20:55;;;;;;;18.50;11.17;;;;;;;;;;10284576;28;20093;-79
2023/12/19 09:25:56;;;;;;;17.73;9.50;;;;;;;;;;10284855;28;20394;-79
2023/12/19 09:31:07;;;;;;;21.67;10.47;;;;;;;;;;10282509;28;20022;-82
2023/12/19 09:36:22;;;;;;;17.93;9.50;;;;;;;;;;10277748;28;20042;-79
2023/12/19 09:41:23;;;;;;;15.97;9.13;;;;;;;;;;10285224;28;20487;-80
2023/12/19 09:46:25;;;;;;;14.33;8.10;;;;;;;;;;10284932;28;20726;-79
2023/12/19 09:51:30;;;;;;;18.57;9.47;;;;;;;;;;10283882;28;20031;-79
2023/12/19 09:56:31;;;;;;;16.40;8.30;;;;;;;;;;10284748;28;20618;-79
2023/12/19 10:01:33;;;;;;;18.43;9.27;;;;;;;;;;10285652;28;20088;-79
2023/12/19 10:06:34;;;;;;;20.35;9.10;;;;;;;;;;10292368;28;20035;-80
2023/12/19 10:11:35;;;;;;;17.40;8.43;;;;;;;;;;10291704;28;20138;-78
2023/12/19 10:16:38;;;;;;;16.67;8.18;;;;;;;;;;10279705;28;20066;-81
2023/12/19 10:21:41;;;;;;;20.52;8.23;;;;;;;;;;10291110;28;20501;-81
2023/12/19 10:26:42;;;;;;;13.60;6.88;;;;;;;;;;10290262;28;20034;-81
2023/12/19 10:31:43;;;;;;;13.98;6.15;;;;;;;;;;10279440;28;20077;-79
2023/12/19 10:36:44;;;;;;;15.02;7.78;;;;;;;;;;10290431;28;20578;-81
2023/12/19 10:41:45;;;;;;;13.50;6.97;;;;;;;;;;10291584;28;20031;-80
2023/12/19 10:46:47;;;;;;;13.38;7.32;;;;;;;;;;10289566;28;20062;-80
2023/12/19 10:51:53;;;;;;;20.05;7.05;;;;;;;;;;10259110;28;20027;-80
2023/12/19 10:56:59;;;;;;;15.50;6.68;;;;;;;;;;10289496;28;20050;-80
2023/12/19 11:02:00;;;;;;;;;;;;;;;;;;10288565;28;20457;-81
2023/12/19 11:07:04;;;;;;;18.13;8.68;;;;;;;;;;10288462;28;19937;-80
2023/12/19 11:12:06;;;;;;;15.43;6.70;;;;;;;;;;10283936;28;20491;-80
2023/12/19 11:17:12;;;;;;;11.20;6.35;;;;;;;;;;10289343;28;20054;-81
2023/12/19 11:22:13;;;;;;;;;;;;;;;;;;10274702;28;20134;-80
2023/12/19 11:27:17;;;;;;;12.23;5.97;;;;;;;;;;10287296;28;20374;-82
2023/12/19 11:32:27;;;;;;;12.57;6.05;;;;;;;;;;10288272;28;20791;-81
2023/12/19 11:37:28;;;;;;;19.40;7.80;;;;;;;;;;10275236;28;20043;-79
2023/12/19 11:42:38;;;;;;;15.27;8.38;;;;;;;;;;10287262;28;20121;-80
2023/12/19 11:47:39;;;;;;;13.63;6.27;;;;;;;;;;10285074;28;20089;-82
2023/12/19 11:52:42;;;;;;;10.38;5.38;;;;;;;;;;10267931;28;20077;-82
2023/12/19 11:57:43;;;;;;;12.65;5.57;;;;;;;;;;10288469;28;20039;-80
2023/12/19 12:02:45;;;;;;;13.60;5.30;;;;;;;;;;10288039;28;20031;-79
2023/12/19 12:07:51;;;;;;;10.10;5.97;;;;;;;;;;10282971;28;20038;-80
2023/12/19 12:12:52;;;;;;;15.98;6.35;;;;;;;;;;10283444;28;20490;-80
2023/12/19 12:18:10;;;;;;;9.80;5.32;;;;;;;;;;10287497;28;20053;-80
2023/12/19 12:23:11;;;;;;;8.23;5.25;;;;;;;;;;10283508;28;20440;-80
2023/12/19 12:28:17;;;;;;;10.30;4.72;;;;;;;;;;10285455;28;20034;-82
2023/12/19 12:33:18;;;;;;;10.48;5.30;;;;;;;;;;10273500;28;20060;-80
2023/12/19 12:38:20;;;;;;;9.73;5.18;;;;;;;;;;10282766;28;20437;-79
2023/12/19 12:43:39;;;;;;;10.10;5.03;;;;;;;;;;10280061;28;20868;-81
2023/12/19 12:48:42;;;;;;;12.45;6.57;;;;;;;;;;10277504;28;20042;-80
2023/12/19 12:53:43;;;;;;;11.10;5.13;;;;;;;;;;10285219;28;20479;-80
2023/12/19 12:58:44;;;;;;;9.93;5.22;;;;;;;;;;10274240;28;20047;-81
2023/12/19 13:03:46;;;;;;;11.77;6.28;;;;;;;;;;10282855;28;20587;-81
2023/12/19 13:08:47;;;;;;;11.57;5.45;;;;;;;;;;10280392;28;20023;-80
2023/12/19 13:13:48;;;;;;;12.50;5.80;;;;;;;;;;10271576;28;20122;-80
2023/12/19 13:18:49;;;;;;;7.50;4.82;;;;;;;;;;10285322;28;20482;-82
2023/12/19 13:23:52;;;;;;;9.80;4.88;;;;;;;;;;10284651;28;20034;-83
2023/12/19 13:29:02;;;;;;;9.45;4.97;;;;;;;;;;10275625;28;20026;-79
2023/12/19 13:34:04;;;;;;;10.90;5.60;;;;;;;;;;10271167;28;20073;-82
2023/12/19 13:39:05;;;;;;;12.18;5.25;;;;;;;;;;10291962;28;20042;-81
2023/12/19 13:44:08;;;;;;;16.95;5.97;;;;;;;;;;10294688;28;20081;-80
2023/12/19 13:49:09;;;;;;;11.85;5.60;;;;;;;;;;10293236;28;20045;-80
2023/12/19 13:54:10;;;;;;;11.27;6.00;;;;;;;;;;10288891;28;20045;-81
2023/12/19 13:59:11;;;;;;;10.73;5.03;;;;;;;;;;10288349;28;20037;-80
2023/12/19 14:04:13;;;;;;;9.73;5.18;;;;;;;;;;10276949;28;20097;-80
2023/12/19 14:09:19;;;;;;;13.05;4.90;;;;;;;;;;10286740;28;20035;-80
2023/12/19 14:14:20;;;;;;;9.80;5.45;;;;;;;;;;10275993;28;20038;-80
2023/12/19 14:19:21;;;;;;;14.32;6.75;;;;;;;;;;10302137;28;20458;-80
2023/12/19 14:24:22;;;;;;;12.87;5.63;;;;;;;;;;10288977;28;20027;-82
2023/12/19 14:29:23;;;;;;;18.55;6.88;;;;;;;;;;10288600;28;20027;-80
2023/12/19 14:34:24;;;;;;;11.32;5.75;;;;;;;;;;10301625;28;20438;-80
2023/12/19 14:39:25;;;;;;;13.70;6.03;;;;;;;;;;10291240;28;20035;-80
2023/12/19 14:44:26;;;;;;;11.33;5.13;;;;;;;;;;10289913;28;20498;-81
2023/12/19 14:49:27;;;;;;;13.33;5.93;;;;;;;;;;10290550;28;20045;-81
2023/12/19 14:54:28;;;;;;;13.45;5.85;;;;;;;;;;10293766;28;20030;-80
2023/12/19 14:59:30;;;;;;;14.97;6.00;;;;;;;;;;10291203;28;20053;-80
2023/12/19 15:04:32;;;;;;;11.87;5.80;;;;;;;;;;10300268;28;20058;-79
2023/12/19 15:09:33;;;;;;;13.27;6.13;;;;;;;;;;10287966;28;20043;-81
2023/12/19 15:14:34;;;;;;;13.73;5.77;;;;;;;;;;10288105;28;20486;-80
2023/12/19 15:19:37;;;;;;;12.10;5.57;;;;;;;;;;10288176;28;20031;-80
2023/12/19 15:24:44;;;;;;;17.07;7.07;;;;;;;;;;10288234;28;20043;-80
2023/12/19 15:29:45;;;;;;;17.33;7.67;;;;;;;;;;10278398;28;20478;-78
2023/12/19 15:34:53;;;;;;;14.07;7.10;;;;;;;;;;10292305;28;20047;-84
2023/12/19 15:39:55;;;;;;;12.23;6.73;;;;;;;;;;10288014;28;20475;-80
2023/12/19 15:44:57;;;;;;;16.80;7.23;;;;;;;;;;10286447;28;20077;-83
2023/12/19 15:49:58;;;;;;;17.00;7.73;;;;;;;;;;10299572;28;20014;-80
2023/12/19 15:55:00;;;;;;;18.20;7.67;;;;;;;;;;10314424;28;20482;-80
2023/12/19 16:00:02;;;;;;;18.17;8.67;;;;;;;;;;10273385;28;20114;-80
2023/12/19 16:05:10;;;;;;;18.30;8.50;;;;;;;;;;10274062;28;20039;-82
2023/12/19 16:10:12;;;;;;;25.83;12.47;;;;;;;;;;10294332;28;20027;-82
2023/12/19 16:15:13;;;;;;;52.97;23.63;;;;;;;;;;10290025;28;20042;-80
2023/12/19 16:20:14;;;;;;;46.17;22.37;;;;;;;;;;10286487;28;20577;-80
2023/12/19 16:25:22;;;;;;;36.00;18.07;;;;;;;;;;10285732;28;20043;-80
2023/12/19 16:30:23;;;;;;;33.03;13.73;;;;;;;;;;10279895;28;20465;-80
2023/12/19 16:35:24;;;;;;;18.83;9.80;;;;;;;;;;10272036;28;20046;-81
2023/12/19 16:40:25;;;;;;;17.27;8.83;;;;;;;;;;10278647;28;20092;-82
2023/12/19 16:45:26;;;;;;;17.97;8.13;;;;;;;;;;10283943;28;20059;-80
2023/12/19 16:50:27;;;;;;;21.67;8.63;;;;;;;;;;10285448;28;20034;-81
2023/12/19 16:55:28;;;;;;;18.50;8.53;;;;;;;;;;10286026;28;20077;-80
2023/12/19 17:00:30;;;;;;;22.43;9.27;;;;;;;;;;10284331;28;20046;-80
2023/12/19 17:05:31;;;;;;;32.70;13.53;;;;;;;;;;10284937;28;20035;-80
2023/12/19 17:10:32;;;;;;;17.43;9.37;;;;;;;;;;10268701;28;20399;-80
2023/12/19 17:15:33;;;;;;;16.77;8.00;;;;;;;;;;10276038;28;20046;-80
2023/12/19 17:20:34;;;;;;;26.07;11.60;;;;;;;;;;10278482;28;20038;-80
2023/12/19 17:25:35;;;;;;;24.63;10.80;;;;;;;;;;10271984;28;20089;-79
2023/12/19 17:30:38;;;;;;;24.17;10.07;;;;;;;;;;10288045;28;20027;-81
2023/12/19 17:35:39;;;;;;;21.97;9.90;;;;;;;;;;10285553;28;20070;-81
2023/12/19 17:40:40;;;;;;;17.07;8.30;;;;;;;;;;10283158;28;20034;-79
2023/12/19 17:45:41;;;;;;;20.27;9.03;;;;;;;;;;10285830;28;20065;-79
2023/12/19 17:50:42;;;;;;;19.93;8.37;;;;;;;;;;10276522;28;20031;-79
2023/12/19 17:55:43;;;;;;;28.90;12.97;;;;;;;;;;10294775;28;20402;-81
2023/12/19 18:00:44;;;;;;;29.90;13.50;;;;;;;;;;10295171;28;20226;-80
2023/12/19 18:05:46;;;;;;;30.37;12.73;;;;;;;;;;10285707;28;20039;-78
2023/12/19 18:10:47;;;;;;;20.57;10.27;;;;;;;;;;10292248;28;20506;-80
2023/12/19 18:15:48;;;;;;;20.93;11.20;;;;;;;;;;10287901;28;20054;-78
2023/12/19 18:21:00;;;;;;;19.73;11.10;;;;;;;;;;10279159;28;20486;-78
2023/12/19 18:26:01;;;;;;;25.93;12.67;;;;;;;;;;10276556;28;20047;-79
2023/12/19 18:31:02;;;;;;;19.40;9.60;;;;;;;;;;10290904;28;20031;-79
2023/12/19 18:36:04;;;;;;;20.53;8.97;;;;;;;;;;10298501;28;20137;-78
2023/12/19 18:41:12;;;;;;;21.17;10.77;;;;;;;;;;10295185;28;20041;-79
2023/12/19 18:46:16;;;;;;;26.07;14.10;;;;;;;;;;10271019;28;20625;-78
2023/12/19 18:51:17;;;;;;;22.93;10.00;;;;;;;;;;10287589;28;20038;-78
2023/12/19 18:56:18;;;;;;;21.60;10.83;;;;;;;;;;10296086;28;20066;-81
2023/12/19 19:01:19;;;;;;;22.80;11.20;;;;;;;;;;10291120;28;20097;-80
2023/12/19 19:06:21;;;;;;;18.03;9.37;;;;;;;;;;10291117;28;20058;-79
2023/12/19 19:11:21;;;;;;;20.33;10.10;;;;;;;;;;10282116;28;20387;-79
2023/12/19 19:16:22;;;;;;;21.33;10.17;;;;;;;;;;10289139;28;20050;-79
2023/12/19 19:21:24;;;;;;;30.60;13.00;;;;;;;;;;10289038;28;20043;-79
2023/12/19 19:26:25;;;;;;;29.60;12.93;;;;;;;;;;10285446;28;20045;-80
2023/12/19 19:31:27;;;;;;;27.63;12.30;;;;;;;;;;10275743;28;20043;-79
2023/12/19 19:36:31;;;;;;;24.37;12.03;;;;;;;;;;10292259;28;20042;-79
2023/12/19 19:41:32;;;;;;;29.50;12.60;;;;;;;;;;10274994;28;20081;-81
2023/12/19 19:46:33;;;;;;;23.90;11.17;;;;;;;;;;10287231;28;20503;-78
2023/12/19 19:51:34;;;;;;;20.73;10.83;;;;;;;;;;10291179;28;20038;-81
2023/12/19 19:56:35;;;;;;;26.90;13.50;;;;;;;;;;10294311;28;20101;-79
2023/12/19 20:01:46;;;;;;;17.57;10.00;;;;;;;;;;10273889;28;20031;-79
2023/12/19 20:06:47;;;;;;;23.70;11.50;;;;;;;;;;10296475;28;20035;-79
2023/12/19 20:11:55;;;;;;;24.27;12.00;;;;;;;;;;10286915;28;20035;-80
2023/12/19 20:16:57;;;;;;;21.20;10.57;;;;;;;;;;10285941;28;20039;-78
2023/12/19 20:21:58;;;;;;;21.60;9.70;;;;;;;;;;10298511;28;20513;-77
2023/12/19 20:26:59;;;;;;;22.47;10.40;;;;;;;;;;10290797;28;20031;-79
2023/12/19 20:32:04;;;;;;;16.90;8.63;;;;;;;;;;10289763;28;20030;-78
2023/12/19 20:37:06;;;;;;;17.70;8.80;;;;;;;;;;10293139;28;20042;-79
2023/12/19 20:42:18;;;;;;;17.60;9.43;;;;;;;;;;10280816;28;20055;-78
2023/12/19 20:47:26;;;;;;;20.03;8.93;;;;;;;;;;10287024;28;20589;-78
2023/12/19 20:52:27;;;;;;;15.77;8.43;;;;;;;;;;10284651;28;20483;-78
2023/12/19 20:57:28;;;;;;;18.03;8.53;;;;;;;;;;10286128;28;20375;-78
2023/12/19 21:02:29;;;;;;;14.67;7.57;;;;;;;;;;10295772;28;20030;-78
2023/12/19 21:07:30;;;;;;;13.57;7.20;;;;;;;;;;10299851;28;20068;-78
2023/12/19 21:12:31;;;;;;;13.10;7.60;;;;;;;;;;10284538;28;20026;-78
2023/12/19 21:17:33;;;;;;;11.93;6.60;;;;;;;;;;10268246;28;20046;-78
2023/12/19 21:22:34;;;;;;;14.50;7.13;;;;;;;;;;10284386;28;20038;-79
2023/12/19 21:27:35;;;;;;;25.23;11.00;;;;;;;;;;10301410;28;20034;-80
2023/12/19 21:32:36;;;;;;;23.23;9.83;;;;;;;;;;10287422;28;20035;-79
2023/12/19 21:37:37;;;;;;;20.50;8.50;;;;;;;;;;10284006;28;20450;-79
2023/12/19 21:42:38;;;;;;;18.10;7.93;;;;;;;;;;10290693;28;20031;-79
2023/12/19 21:47:45;;;;;;;27.27;10.63;;;;;;;;;;10294513;28;20541;-79
2023/12/19 21:52:46;;;;;;;28.53;10.13;;;;;;;;;;10283983;28;20065;-79
2023/12/19 21:57:47;;;;;;;22.67;10.00;;;;;;;;;;10295651;28;20053;-78
2023/12/19 22:02:48;;;;;;;29.63;11.90;;;;;;;;;;10279936;28;20038;-79
2023/12/19 22:07:49;;;;;;;17.60;8.27;;;;;;;;;;10307560;28;20042;-79
2023/12/19 22:12:50;;;;;;;17.93;7.83;;;;;;;;;;10293708;28;20509;-79
2023/12/19 22:17:51;;;;;;;21.77;8.47;;;;;;;;;;10293377;28;20050;-78
2023/12/19 22:22:59;;;;;;;17.57;8.13;;;;;;;;;;10289975;28;20545;-78
2023/12/19 22:28:07;;;;;;;18.73;9.00;;;;;;;;;;10273754;28;20043;-78
2023/12/19 22:33:08;;;;;;;34.60;18.80;;;;;;;;;;10292762;28;20035;-79
2023/12/19 22:38:09;;;;;;;20.00;10.10;;;;;;;;;;10290530;28;20053;-78
2023/12/19 22:43:12;;;;;;;22.03;10.17;;;;;;;;;;10291089;28;20039;-78
2023/12/19 22:48:13;;;;;;;18.57;10.07;;;;;;;;;;10289898;28;20058;-79
2023/12/19 22:53:14;;;;;;;23.27;11.00;;;;;;;;;;10289822;28;20446;-79
2023/12/19 22:58:15;;;;;;;20.87;9.80;;;;;;;;;;10289237;28;20038;-78
2023/12/19 23:03:19;;;;;;;17.77;9.83;;;;;;;;;;10302226;28;20062;-77
2023/12/19 23:08:20;;;;;;;18.67;9.47;;;;;;;;;;10288745;28;20070;-79
2023/12/19 23:13:21;;;;;;;18.80;10.00;;;;;;;;;;10297025;28;20157;-78
2023/12/19 23:18:22;;;;;;;16.97;9.10;;;;;;;;;;10296798;28;20545;-80
2023/12/19 23:23:23;;;;;;;17.87;8.10;;;;;;;;;;10288760;28;20039;-78
2023/12/19 23:28:26;;;;;;;15.37;8.10;;;;;;;;;;10295855;28;20125;-77
2023/12/19 23:33:27;;;;;;;16.03;8.03;;;;;;;;;;10298584;28;20529;-78
2023/12/19 23:38:28;;;;;;;16.60;8.13;;;;;;;;;;10292525;28;20053;-78
2023/12/19 23:43:29;;;;;;;16.83;8.80;;;;;;;;;;10301248;28;20455;-79
2023/12/19 23:48:30;;;;;;;16.93;8.40;;;;;;;;;;10289499;28;20137;-78
2023/12/19 23:53:31;;;;;;;15.43;7.57;;;;;;;;;;10290188;28;20459;-79
2023/12/19 23:58:32;;;;;;;14.47;8.27;;;;;;;;;;10286814;28;20042;-78
